createdAt,value
2018-09-02T00:02:03.867Z,91.60
2018-09-02T00:04:32.177Z,91.60
2018-09-02T00:07:00.447Z,91.70
2018-09-02T00:09:28.788Z,91.50
2018-09-02T00:11:57.232Z,91.70
2018-09-02T00:14:25.599Z,91.60
2018-09-02T00:16:53.936Z,91.70
2018-09-02T00:19:22.196Z,91.80
2018-09-02T00:21:50.526Z,91.90
2018-09-02T00:24:19.113Z,91.80
2018-09-02T00:26:47.519Z,91.90
2018-09-02T00:29:15.867Z,91.90
2018-09-02T00:31:44.183Z,92.10
2018-09-02T00:34:12.428Z,92.30
2018-09-02T00:36:40.793Z,92.00
2018-09-02T00:39:10.080Z,91.90
2018-09-02T00:41:39.022Z,92.10
2018-09-02T00:44:07.907Z,92.00
2018-09-02T00:46:36.234Z,91.90
2018-09-02T00:49:04.783Z,91.80
2018-09-02T00:51:33.590Z,91.90
2018-09-02T00:54:01.915Z,91.90
2018-09-02T00:56:30.351Z,91.80
2018-09-02T00:58:58.936Z,91.90
2018-09-02T01:01:27.231Z,91.80
2018-09-02T01:03:55.600Z,91.80
2018-09-02T01:06:24.218Z,91.90
2018-09-02T01:08:52.448Z,92.00
2018-09-02T01:11:20.698Z,92.10
2018-09-02T01:13:48.991Z,92.00
2018-09-02T01:16:17.324Z,92.00
2018-09-02T01:18:45.690Z,92.00
2018-09-02T01:21:14.344Z,92.10
2018-09-02T01:23:42.652Z,91.90
2018-09-02T01:26:11.044Z,91.90
2018-09-02T01:28:39.360Z,92.00
2018-09-02T01:31:07.722Z,92.00
2018-09-02T01:33:35.935Z,92.00
2018-09-02T01:36:04.215Z,92.00
2018-09-02T01:38:32.573Z,92.10
2018-09-02T01:41:00.867Z,92.20
2018-09-02T01:43:29.190Z,92.30
2018-09-02T01:45:58.439Z,92.30
2018-09-02T01:48:26.751Z,92.30
2018-09-02T01:50:55.101Z,92.50
2018-09-02T01:53:23.498Z,92.50
2018-09-02T01:55:51.803Z,92.50
2018-09-02T01:58:20.136Z,92.60
2018-09-02T02:00:48.404Z,92.50
2018-09-02T02:03:16.736Z,92.50
2018-09-02T02:05:45.067Z,92.40
2018-09-02T02:08:13.356Z,92.30
2018-09-02T02:10:41.612Z,92.20
2018-09-02T02:13:09.887Z,92.20
2018-09-02T02:15:38.192Z,92.30
2018-09-02T02:18:06.564Z,92.30
2018-09-02T02:20:34.831Z,92.40
2018-09-02T02:23:03.181Z,92.30
2018-09-02T02:25:31.448Z,92.30
2018-09-02T02:27:59.713Z,92.20
2018-09-02T02:30:28.019Z,92.00
2018-09-02T02:32:56.338Z,92.00
2018-09-02T02:35:24.653Z,91.90
2018-09-02T02:37:52.941Z,91.60
2018-09-02T02:40:21.256Z,91.30
2018-09-02T02:42:49.565Z,91.80
2018-09-02T02:45:24.384Z,92.00
2018-09-02T02:47:52.679Z,92.20
2018-09-02T02:50:21.011Z,92.10
2018-09-02T02:53:09.056Z,92.40
2018-09-02T02:55:37.363Z,92.00
2018-09-02T02:58:05.679Z,92.00
2018-09-02T03:00:33.995Z,92.10
2018-09-02T03:03:02.360Z,92.40
2018-09-02T03:05:30.680Z,92.50
2018-09-02T03:07:58.971Z,92.60
2018-09-02T03:10:27.295Z,92.60
2018-09-02T03:12:55.712Z,92.10
2018-09-02T03:15:24.107Z,92.40
2018-09-02T03:17:52.403Z,92.60
2018-09-02T03:20:20.675Z,92.60
2018-09-02T03:22:48.955Z,92.70
2018-09-02T03:25:17.446Z,92.70
2018-09-02T03:27:45.743Z,92.70
2018-09-02T03:30:14.084Z,92.70
2018-09-02T03:32:42.402Z,92.70
2018-09-02T03:35:10.888Z,92.70
2018-09-02T03:37:39.204Z,92.70
2018-09-02T03:40:07.621Z,92.90
2018-09-02T03:42:35.927Z,92.90
2018-09-02T03:45:04.445Z,93.00
2018-09-02T03:47:32.735Z,93.10
2018-09-02T03:50:01.050Z,93.10
2018-09-02T03:52:29.400Z,93.30
2018-09-02T03:54:57.688Z,93.20
2018-09-02T03:57:26.003Z,93.30
2018-09-02T03:59:54.364Z,93.40
2018-09-02T04:02:22.640Z,93.50
2018-09-02T04:04:50.976Z,93.40
2018-09-02T04:07:19.259Z,93.50
2018-09-02T04:09:47.743Z,93.40
2018-09-02T04:12:16.044Z,93.40
2018-09-02T04:14:44.312Z,93.30
2018-09-02T04:17:12.645Z,93.30
2018-09-02T04:19:40.937Z,93.20
2018-09-02T04:22:09.235Z,93.30
2018-09-02T04:24:37.549Z,93.40
2018-09-02T04:27:05.899Z,93.40
2018-09-02T04:29:34.180Z,93.50
2018-09-02T04:32:02.475Z,93.40
2018-09-02T04:34:30.908Z,93.40
2018-09-02T04:36:59.216Z,93.30
2018-09-02T04:39:27.487Z,93.40
2018-09-02T04:41:55.791Z,93.60
2018-09-02T04:44:24.039Z,93.60
2018-09-02T04:46:52.436Z,93.90
2018-09-02T04:49:20.849Z,93.60
2018-09-02T04:51:49.111Z,93.50
2018-09-02T04:54:17.532Z,93.50
2018-09-02T04:56:45.856Z,93.70
2018-09-02T04:59:14.159Z,93.60
2018-09-02T05:01:42.447Z,93.50
2018-09-02T05:04:10.820Z,93.40
2018-09-02T05:06:39.708Z,93.30
2018-09-02T05:09:07.996Z,93.50
2018-09-02T05:11:36.327Z,93.50
2018-09-02T05:14:22.007Z,93.40
2018-09-02T05:16:50.291Z,93.20
2018-09-02T05:19:18.573Z,93.30
2018-09-02T05:21:46.875Z,93.40
2018-09-02T05:24:15.214Z,93.60
2018-09-02T05:26:43.543Z,93.60
2018-09-02T05:29:11.857Z,93.70
2018-09-02T05:31:40.162Z,93.60
2018-09-02T05:34:08.460Z,93.50
2018-09-02T05:36:36.844Z,93.50
2018-09-02T05:39:07.711Z,93.50
2018-09-02T05:41:36.055Z,93.50
2018-09-02T05:44:04.505Z,93.10
2018-09-02T05:46:33.439Z,92.60
2018-09-02T05:49:01.844Z,92.90
2018-09-02T05:51:30.123Z,93.00
2018-09-02T05:53:58.480Z,93.00
2018-09-02T05:56:26.845Z,93.30
2018-09-02T05:58:55.089Z,93.50
2018-09-02T06:01:23.375Z,93.90
2018-09-02T06:03:51.707Z,94.00
2018-09-02T06:06:20.079Z,94.20
2018-09-02T06:08:48.391Z,94.10
2018-09-02T06:11:16.693Z,94.50
2018-09-02T06:13:44.995Z,94.20
2018-09-02T06:16:13.320Z,94.30
2018-09-02T06:18:41.632Z,94.10
2018-09-02T06:21:09.891Z,94.30
2018-09-02T06:23:38.424Z,94.60
2018-09-02T06:26:06.691Z,94.10
2018-09-02T06:28:35.049Z,94.40
2018-09-02T06:31:03.363Z,94.40
2018-09-02T06:33:31.616Z,94.10
2018-09-02T06:35:59.922Z,94.30
2018-09-02T06:38:28.337Z,94.40
2018-09-02T06:40:56.575Z,94.20
2018-09-02T06:43:24.846Z,93.80
2018-09-02T06:45:53.289Z,93.40
2018-09-02T06:48:21.587Z,93.20
2018-09-02T06:50:49.939Z,92.90
2018-09-02T06:53:18.171Z,92.30
2018-09-02T06:55:46.478Z,92.40
2018-09-02T06:58:14.873Z,92.10
2018-09-02T07:00:43.162Z,92.50
2018-09-02T07:03:11.555Z,92.80
2018-09-02T07:05:40.840Z,92.70
2018-09-02T07:08:11.348Z,92.30
2018-09-02T07:10:40.309Z,92.30
2018-09-02T07:13:08.661Z,92.00
2018-09-02T07:15:36.967Z,92.00
2018-09-02T07:18:05.287Z,91.40
2018-09-02T07:20:34.268Z,91.40
2018-09-02T07:23:03.035Z,91.70
2018-09-02T07:25:31.466Z,91.70
2018-09-02T07:27:59.732Z,91.40
2018-09-02T07:30:28.083Z,90.90
2018-09-02T07:32:56.407Z,90.40
2018-09-02T07:35:24.744Z,90.70
2018-09-02T07:37:53.064Z,91.20
2018-09-02T07:40:21.395Z,90.50
2018-09-02T07:42:49.715Z,90.70
2018-09-02T07:45:18.961Z,90.60
2018-09-02T07:47:47.374Z,90.80
2018-09-02T07:50:15.916Z,90.70
2018-09-02T07:52:44.465Z,91.90
2018-09-02T07:55:13.043Z,92.20
2018-09-02T07:57:41.351Z,91.90
2018-09-02T08:00:11.056Z,92.00
2018-09-02T08:02:39.792Z,91.50
2018-09-02T08:05:08.671Z,91.20
2018-09-02T08:07:36.995Z,91.80
2018-09-02T08:10:06.687Z,91.40
2018-09-02T08:12:35.290Z,91.90
2018-09-02T08:15:03.723Z,91.40
2018-09-02T08:17:32.177Z,91.30
2018-09-02T08:20:00.662Z,91.20
2018-09-02T08:22:29.724Z,90.80
2018-09-02T08:24:58.009Z,91.10
2018-09-02T08:27:26.299Z,90.00
2018-09-02T08:29:54.603Z,89.20
2018-09-02T08:32:22.928Z,89.70
2018-09-02T08:34:51.284Z,88.00
2018-09-02T08:37:19.683Z,88.00
2018-09-02T08:39:47.983Z,86.30
2018-09-02T08:42:16.335Z,86.30
2018-09-02T08:44:44.620Z,86.90
2018-09-02T08:47:12.954Z,85.70
2018-09-02T08:49:41.272Z,85.70
2018-09-02T08:52:10.186Z,86.10
2018-09-02T08:54:38.514Z,85.20
2018-09-02T08:57:07.244Z,85.40
2018-09-02T08:59:35.568Z,84.40
2018-09-02T09:02:03.893Z,85.20
2018-09-02T09:04:35.324Z,85.10
2018-09-02T09:07:03.617Z,86.10
2018-09-02T09:09:31.899Z,86.40
2018-09-02T09:12:00.172Z,85.80
2018-09-02T09:15:11.011Z,86.40
2018-09-02T09:17:39.371Z,86.70
2018-09-02T09:20:08.284Z,85.80
2018-09-02T09:22:37.412Z,86.30
2018-09-02T09:25:06.814Z,85.10
2018-09-02T09:27:35.095Z,83.30
2018-09-02T09:30:03.464Z,83.20
2018-09-02T09:32:31.756Z,82.70
2018-09-02T09:35:00.104Z,81.90
2018-09-02T09:37:28.464Z,81.00
2018-09-02T09:39:56.784Z,81.00
2018-09-02T09:42:25.076Z,81.20
2018-09-02T09:44:53.455Z,82.00
2018-09-02T09:47:21.714Z,81.90
2018-09-02T09:49:50.088Z,81.30
2018-09-02T09:52:18.519Z,82.20
2018-09-02T09:54:47.009Z,82.30
2018-09-02T09:57:15.689Z,79.50
2018-09-02T09:59:44.139Z,73.80
2018-09-02T10:02:12.562Z,71.80
2018-09-02T10:04:41.335Z,70.60
2018-09-02T10:07:10.002Z,69.10
2018-09-02T10:09:39.217Z,66.80
2018-09-02T10:12:08.153Z,64.30
2018-09-02T10:14:52.536Z,65.80
2018-09-02T10:17:20.930Z,63.40
2018-09-02T10:19:49.931Z,63.20
2018-09-02T10:22:18.888Z,59.80
2018-09-02T10:24:47.829Z,59.60
2018-09-02T10:27:16.216Z,60.20
2018-09-02T10:29:44.560Z,59.40
2018-09-02T10:32:13.182Z,59.60
2018-09-02T10:34:41.608Z,59.60
2018-09-02T10:37:09.991Z,56.60
2018-09-02T10:39:39.011Z,54.60
2018-09-02T10:42:08.371Z,55.80
2018-09-02T10:44:37.013Z,54.10
2018-09-02T10:47:05.605Z,51.80
2018-09-02T10:49:34.145Z,50.40
2018-09-02T10:52:02.683Z,48.50
2018-09-02T10:54:31.256Z,47.20
2018-09-02T10:57:00.005Z,47.90
2018-09-02T10:59:28.626Z,47.00
2018-09-02T11:01:57.716Z,42.40
2018-09-02T11:04:26.832Z,39.20
2018-09-02T11:06:55.993Z,38.60
2018-09-02T11:09:25.059Z,38.80
2018-09-02T11:11:54.064Z,37.80
2018-09-02T11:14:46.339Z,36.20
2018-09-02T11:17:15.339Z,37.40
2018-09-02T11:19:44.312Z,35.50
2018-09-02T11:22:13.386Z,36.00
2018-09-02T11:24:42.441Z,34.80
2018-09-02T11:27:11.445Z,35.00
2018-09-02T11:29:40.672Z,34.10
2018-09-02T11:32:09.859Z,32.90
2018-09-02T11:34:38.928Z,30.90
2018-09-02T11:37:08.005Z,29.20
2018-09-02T11:39:37.666Z,29.30
2018-09-02T11:42:06.752Z,28.80
2018-09-02T11:44:35.828Z,29.40
2018-09-02T11:47:04.969Z,29.70
2018-09-02T11:49:33.999Z,28.90
2018-09-02T11:52:03.161Z,28.10
2018-09-02T11:54:32.243Z,28.30
2018-09-02T11:57:01.313Z,28.00
2018-09-02T11:59:30.301Z,26.60
2018-09-02T12:01:59.415Z,26.60
2018-09-02T12:04:28.492Z,26.40
2018-09-02T12:06:57.642Z,27.20
2018-09-02T12:09:26.732Z,27.60
2018-09-02T12:11:55.770Z,28.10
2018-09-02T12:15:07.542Z,29.40
2018-09-02T12:17:36.600Z,28.70
2018-09-02T12:20:05.880Z,30.10
2018-09-02T12:22:34.996Z,30.40
2018-09-02T12:25:04.336Z,30.00
2018-09-02T12:27:33.477Z,31.20
2018-09-02T12:30:02.523Z,32.00
2018-09-02T12:32:31.635Z,36.70
2018-09-02T12:35:00.788Z,39.30
2018-09-02T12:37:29.995Z,39.60
2018-09-02T12:39:59.154Z,38.10
2018-09-02T12:42:28.260Z,40.00
2018-09-02T12:44:57.524Z,40.90
2018-09-02T12:47:26.740Z,40.40
2018-09-02T12:49:55.819Z,40.50
2018-09-02T12:52:24.948Z,40.50
2018-09-02T12:54:54.144Z,40.40
2018-09-02T12:57:23.248Z,38.90
2018-09-02T12:59:52.352Z,37.80
2018-09-02T13:02:21.619Z,38.30
2018-09-02T13:04:50.827Z,37.70
2018-09-02T13:07:20.627Z,37.80
2018-09-02T13:09:49.831Z,38.30
2018-09-02T13:12:19.037Z,39.40
2018-09-02T13:15:28.377Z,39.10
2018-09-02T13:17:57.543Z,38.40
2018-09-02T13:20:26.689Z,35.90
2018-09-02T13:22:55.972Z,35.70
2018-09-02T13:25:25.051Z,35.00
2018-09-02T13:27:54.183Z,33.90
2018-09-02T13:30:23.284Z,34.30
2018-09-02T13:32:52.407Z,33.70
2018-09-02T13:35:21.523Z,34.40
2018-09-02T13:37:50.631Z,34.70
2018-09-02T13:40:19.789Z,35.90
2018-09-02T13:42:49.549Z,36.30
2018-09-02T13:45:18.736Z,37.60
2018-09-02T13:47:47.866Z,37.70
2018-09-02T13:50:17.029Z,38.00
2018-09-02T13:52:46.111Z,37.60
2018-09-02T13:55:15.312Z,37.30
2018-09-02T13:57:44.465Z,35.60
2018-09-02T14:00:13.869Z,35.70
2018-09-02T14:02:42.982Z,36.00
2018-09-02T14:05:12.683Z,34.20
2018-09-02T14:07:42.152Z,34.00
2018-09-02T14:10:11.448Z,33.20
2018-09-02T14:12:40.628Z,34.20
2018-09-02T14:18:31.360Z,34.00
2018-09-02T14:21:00.452Z,34.70
2018-09-02T14:23:29.571Z,34.20
2018-09-02T14:25:58.628Z,35.20
2018-09-02T14:28:27.847Z,35.30
2018-09-02T14:30:57.006Z,36.00
2018-09-02T14:33:26.148Z,37.30
2018-09-02T14:35:55.270Z,38.10
2018-09-02T14:38:24.404Z,38.30
2018-09-02T14:40:53.517Z,38.50
2018-09-02T14:43:23.048Z,38.90
2018-09-02T14:45:52.867Z,39.90
2018-09-02T14:48:21.984Z,40.80
2018-09-02T14:50:51.197Z,41.00
2018-09-02T14:53:20.257Z,41.30
2018-09-02T14:55:49.399Z,41.60
2018-09-02T14:58:18.749Z,42.20
2018-09-02T15:00:48.035Z,42.00
2018-09-02T15:03:17.137Z,42.50
2018-09-02T15:05:46.281Z,44.00
2018-09-02T15:08:15.430Z,44.60
2018-09-02T15:10:44.591Z,45.10
2018-09-02T15:13:13.704Z,45.50
2018-09-02T15:19:06.464Z,46.30
2018-09-02T15:21:36.150Z,46.70
2018-09-02T15:24:05.542Z,47.90
2018-09-02T15:26:35.362Z,47.80
2018-09-02T15:29:05.777Z,48.50
2018-09-02T15:31:35.484Z,48.10
2018-09-02T15:34:04.777Z,48.20
2018-09-02T15:36:34.551Z,48.70
2018-09-02T15:39:06.673Z,48.80
2018-09-02T15:41:36.407Z,47.50
2018-09-02T15:44:06.037Z,47.90
2018-09-02T15:46:35.840Z,47.10
2018-09-02T15:49:05.352Z,47.50
2018-09-02T15:51:35.423Z,48.50
2018-09-02T15:54:05.044Z,48.30
2018-09-02T15:56:34.929Z,48.50
2018-09-02T15:59:04.416Z,49.30
2018-09-02T16:01:34.042Z,49.00
2018-09-02T16:04:03.482Z,48.80
2018-09-02T16:06:39.440Z,48.70
2018-09-02T16:09:10.531Z,49.10
2018-09-02T16:11:40.098Z,49.70
2018-09-02T16:14:20.952Z,50.10
2018-09-02T16:17:07.772Z,50.20
2018-09-02T16:19:37.214Z,50.70
2018-09-02T16:22:06.744Z,50.40
2018-09-02T16:24:42.640Z,50.70
2018-09-02T16:27:12.639Z,51.00
2018-09-02T16:29:45.080Z,51.60
2018-09-02T16:32:14.684Z,52.30
2018-09-02T16:34:44.332Z,52.40
2018-09-02T16:37:13.923Z,52.60
2018-09-02T16:39:43.585Z,53.30
2018-09-02T16:42:13.037Z,53.10
2018-09-02T16:44:42.526Z,52.50
2018-09-02T16:47:12.082Z,52.30
2018-09-02T16:49:41.565Z,52.90
2018-09-02T16:52:11.001Z,53.20
2018-09-02T16:54:40.450Z,53.10
2018-09-02T16:57:09.980Z,53.50
2018-09-02T16:59:39.457Z,53.50
2018-09-02T17:02:09.029Z,53.70
2018-09-02T17:04:40.847Z,53.80
2018-09-02T17:07:10.365Z,54.10
2018-09-02T17:09:39.865Z,53.90
2018-09-02T17:12:09.599Z,54.60
2018-09-02T17:18:00.947Z,55.20
2018-09-02T17:20:36.012Z,55.90
2018-09-02T17:23:11.577Z,55.20
2018-09-02T17:25:41.905Z,54.40
2018-09-02T17:28:11.377Z,54.80
2018-09-02T17:30:40.984Z,55.40
2018-09-02T17:33:11.777Z,55.80
2018-09-02T17:35:41.199Z,56.20
2018-09-02T17:38:10.664Z,56.90
2018-09-02T17:40:42.969Z,56.90
2018-09-02T17:43:12.468Z,57.00
2018-09-02T17:45:42.734Z,57.40
2018-09-02T17:48:12.244Z,57.30
2018-09-02T17:50:41.673Z,57.40
2018-09-02T17:53:11.160Z,58.00
2018-09-02T17:55:41.628Z,58.00
2018-09-02T17:58:11.055Z,58.40
2018-09-02T18:00:45.885Z,58.60
2018-09-02T18:03:15.254Z,58.90
2018-09-02T18:05:44.599Z,59.10
2018-09-02T18:08:13.815Z,59.20
2018-09-02T18:10:43.188Z,59.30
2018-09-02T18:13:12.379Z,59.50
2018-09-02T18:19:03.319Z,60.00
2018-09-02T18:21:32.515Z,60.30
2018-09-02T18:24:01.702Z,60.30
2018-09-02T18:26:31.521Z,60.60
2018-09-02T18:29:00.667Z,60.50
2018-09-02T18:31:31.369Z,60.60
2018-09-02T18:34:00.580Z,60.60
2018-09-02T18:36:29.852Z,61.10
2018-09-02T18:38:58.999Z,61.20
2018-09-02T18:41:28.228Z,61.50
2018-09-02T18:43:58.220Z,61.30
2018-09-02T18:46:27.638Z,60.50
2018-09-02T18:48:56.796Z,60.50
2018-09-02T18:51:25.905Z,60.90
2018-09-02T18:53:55.109Z,61.60
2018-09-02T18:56:24.256Z,61.50
2018-09-02T18:58:53.574Z,61.30
2018-09-02T19:01:22.715Z,61.40
2018-09-02T19:03:51.913Z,61.50
2018-09-02T19:06:21.084Z,61.80
2018-09-02T19:08:50.513Z,62.10
2018-09-02T19:11:21.096Z,61.90
2018-09-02T19:20:31.839Z,62.20
2018-09-02T19:23:01.641Z,63.10
2018-09-02T19:25:30.834Z,62.60
2018-09-02T19:28:00.013Z,63.40
2018-09-02T19:30:29.256Z,63.70
2018-09-02T19:32:58.431Z,63.60
2018-09-02T19:35:27.632Z,63.70
2018-09-02T19:37:57.355Z,64.00
2018-09-02T19:40:26.613Z,64.20
2018-09-02T19:42:55.731Z,64.50
2018-09-02T19:45:24.872Z,64.90
2018-09-02T19:47:53.977Z,64.80
2018-09-02T19:50:24.190Z,64.90
2018-09-02T19:52:55.340Z,65.00
2018-09-02T19:55:25.459Z,65.20
2018-09-02T19:57:54.732Z,65.40
2018-09-02T20:00:23.975Z,65.40
2018-09-02T20:02:53.240Z,65.70
2018-09-02T20:05:23.352Z,65.70
2018-09-02T20:07:53.052Z,66.10
2018-09-02T20:10:22.247Z,66.50
2018-09-02T20:12:51.418Z,66.60
2018-09-02T20:18:39.086Z,67.60
2018-09-02T20:21:08.195Z,67.60
2018-09-02T20:23:37.284Z,67.40
2018-09-02T20:26:51.365Z,67.70
2018-09-02T20:29:20.808Z,67.80
2018-09-02T20:31:49.880Z,68.90
2018-09-02T20:34:18.951Z,68.30
2018-09-02T20:36:48.103Z,68.70
2018-09-02T20:39:17.228Z,69.30
2018-09-02T20:41:46.343Z,69.90
2018-09-02T20:44:15.499Z,69.60
2018-09-02T20:46:44.612Z,69.60
2018-09-02T20:49:13.822Z,69.70
2018-09-02T20:51:42.960Z,70.40
2018-09-02T20:54:12.633Z,70.30
2018-09-02T20:56:41.772Z,69.80
2018-09-02T20:59:11.047Z,70.10
2018-09-02T21:01:40.122Z,70.00
2018-09-02T21:04:09.398Z,69.70
2018-09-02T21:06:39.172Z,70.10
2018-09-02T21:09:12.376Z,70.40
2018-09-02T21:11:41.916Z,70.80
2018-09-02T21:14:25.082Z,71.40
2018-09-02T21:17:13.044Z,72.00
2018-09-02T21:19:41.884Z,72.00
2018-09-02T21:22:10.908Z,72.10
2018-09-02T21:24:39.878Z,72.40
2018-09-02T21:27:08.671Z,72.40
2018-09-02T21:29:37.361Z,72.40
2018-09-02T21:32:06.113Z,72.80
2018-09-02T21:34:34.932Z,73.30
2018-09-02T21:37:03.421Z,73.40
2018-09-02T21:39:31.880Z,73.30
2018-09-02T21:42:00.280Z,73.20
2018-09-02T21:44:28.709Z,73.30
2018-09-02T21:46:57.081Z,73.20
2018-09-02T21:49:25.427Z,73.40
2018-09-02T21:51:53.782Z,73.30
2018-09-02T21:54:22.091Z,73.50
2018-09-02T21:56:50.389Z,73.80
2018-09-02T21:59:18.723Z,74.10
2018-09-02T22:01:47.141Z,74.90
2018-09-02T22:04:15.472Z,73.80
2018-09-02T22:06:43.951Z,74.00
2018-09-02T22:09:14.457Z,74.20
2018-09-02T22:11:43.357Z,74.10
2018-09-02T22:14:12.673Z,74.60
2018-09-02T22:16:41.350Z,74.20
2018-09-02T22:19:09.652Z,74.40
2018-09-02T22:21:38.880Z,74.40
2018-09-02T22:24:07.188Z,74.50
2018-09-02T22:26:35.902Z,74.50
2018-09-02T22:29:04.325Z,74.10
2018-09-02T22:31:32.617Z,74.70
2018-09-02T22:34:00.926Z,74.50
2018-09-02T22:36:29.395Z,74.70
2018-09-02T22:38:57.680Z,74.70
2018-09-02T22:41:26.103Z,74.70
2018-09-02T22:43:54.472Z,74.90
2018-09-02T22:46:22.876Z,75.00
2018-09-02T22:48:51.376Z,75.30
2018-09-02T22:51:19.731Z,75.50
2018-09-02T22:53:48.014Z,75.50
2018-09-02T22:56:16.359Z,75.30
2018-09-02T22:58:44.628Z,75.60
2018-09-02T23:01:12.904Z,75.70
2018-09-02T23:03:41.288Z,75.40
2018-09-02T23:06:09.732Z,75.70
2018-09-02T23:08:38.276Z,75.70
2018-09-02T23:11:06.644Z,75.40
2018-09-02T23:13:34.930Z,75.70
2018-09-02T23:16:03.270Z,75.80
2018-09-02T23:18:31.541Z,75.80
2018-09-02T23:20:59.955Z,75.90
2018-09-02T23:23:28.344Z,76.10
2018-09-02T23:25:56.732Z,76.10
2018-09-02T23:28:25.153Z,76.20
2018-09-02T23:30:53.551Z,76.40
2018-09-02T23:33:21.876Z,76.40
2018-09-02T23:35:50.240Z,76.40
2018-09-02T23:38:18.528Z,76.30
2018-09-02T23:40:46.925Z,76.80
2018-09-02T23:43:15.251Z,77.10
2018-09-02T23:45:43.590Z,77.30
2018-09-02T23:48:11.910Z,77.30
2018-09-02T23:50:40.301Z,77.30
2018-09-02T23:53:08.653Z,76.60
2018-09-02T23:55:37.076Z,77.30
2018-09-02T23:58:06.112Z,77.10
